createdAt,value
2022-12-18T00:00:46.581Z,7.32
2022-12-18T00:03:16.072Z,7.97
2022-12-18T00:05:50.857Z,8.18
2022-12-18T00:08:19.249Z,7.20
2022-12-18T00:10:47.692Z,7.35
2022-12-18T00:13:16.307Z,7.00
2022-12-18T00:15:44.601Z,6.70
2022-12-18T00:18:13.824Z,6.40
2022-12-18T00:23:13.263Z,7.55
2022-12-18T00:25:41.295Z,7.90
2022-12-18T00:28:08.429Z,7.10
2022-12-18T00:30:41.526Z,7.00
2022-12-18T00:33:11.427Z,6.22
2022-12-18T00:35:43.190Z,6.25
2022-12-18T00:38:18.145Z,7.22
2022-12-18T00:40:45.489Z,7.28
2022-12-18T00:43:13.749Z,7.00
2022-12-18T00:45:41.852Z,6.85
2022-12-18T00:48:11.391Z,6.38
2022-12-18T00:50:39.792Z,6.72
2022-12-18T00:53:07.668Z,6.72
2022-12-18T00:55:34.560Z,6.70
2022-12-18T00:58:07.702Z,7.70
2022-12-18T01:00:36.493Z,7.70
2022-12-18T01:03:04.232Z,7.90
2022-12-18T01:05:31.636Z,8.02
2022-12-18T01:08:00.474Z,7.60
2022-12-18T01:10:28.325Z,8.10
2022-12-18T01:12:58.129Z,7.72
2022-12-18T01:15:25.578Z,7.40
2022-12-18T01:17:54.479Z,7.45
2022-12-18T01:20:23.326Z,8.55
2022-12-18T01:22:50.213Z,8.68
2022-12-18T01:25:17.748Z,9.63
2022-12-18T01:27:49.094Z,8.25
2022-12-18T01:30:16.353Z,7.63
2022-12-18T01:32:44.404Z,8.55
2022-12-18T01:35:16.788Z,8.55
2022-12-18T01:37:44.225Z,7.45
2022-12-18T01:40:13.064Z,7.45
2022-12-18T01:42:43.277Z,7.70
2022-12-18T01:45:14.938Z,7.72
2022-12-18T01:47:50.906Z,7.63
2022-12-18T01:50:31.324Z,7.25
2022-12-18T01:53:05.621Z,7.45
2022-12-18T01:55:40.857Z,7.55
2022-12-18T01:58:07.862Z,8.00
2022-12-18T02:00:35.661Z,8.05
2022-12-18T02:03:02.801Z,7.15
2022-12-18T02:05:46.058Z,8.07
2022-12-18T02:08:40.510Z,7.82
2022-12-18T02:11:20.167Z,7.72
2022-12-18T02:14:11.985Z,7.32
2022-12-18T02:17:07.827Z,7.13
2022-12-18T02:19:44.344Z,6.82
2022-12-18T02:22:46.776Z,7.13
2022-12-18T02:26:28.524Z,6.70
2022-12-18T02:29:04.562Z,6.80
2022-12-18T02:31:41.142Z,7.32
2022-12-18T02:34:10.071Z,7.00
2022-12-18T02:36:41.874Z,7.35
2022-12-18T02:39:13.211Z,6.80
2022-12-18T02:41:49.359Z,6.97
2022-12-18T02:44:16.399Z,7.07
2022-12-18T02:46:48.731Z,7.60
2022-12-18T02:49:43.440Z,7.32
2022-12-18T02:52:56.787Z,7.57
2022-12-18T02:56:01.239Z,8.00
2022-12-18T02:58:50.894Z,7.90
2022-12-18T03:01:42.033Z,7.77
2022-12-18T03:04:39.046Z,8.90
2022-12-18T03:07:14.882Z,8.40
2022-12-18T03:09:50.447Z,8.75
2022-12-18T03:12:31.303Z,9.05
2022-12-18T03:15:17.938Z,6.40
2022-12-18T03:17:53.605Z,8.73
2022-12-18T03:20:25.507Z,8.80
2022-12-18T03:23:00.057Z,8.38
2022-12-18T03:25:29.047Z,8.98
2022-12-18T03:28:00.226Z,8.48
2022-12-18T03:30:30.885Z,9.35
2022-12-18T03:35:50.671Z,8.15
2022-12-18T03:38:19.829Z,8.13
2022-12-18T03:41:10.961Z,8.32
2022-12-18T03:44:03.290Z,7.82
2022-12-18T03:46:57.314Z,8.02
2022-12-18T03:49:33.045Z,8.57
2022-12-18T03:52:47.731Z,7.97
2022-12-18T03:55:16.031Z,8.27
2022-12-18T03:57:48.679Z,8.00
2022-12-18T04:00:26.299Z,8.43
2022-12-18T04:03:05.862Z,7.90
2022-12-18T04:05:41.523Z,7.70
2022-12-18T04:08:11.232Z,8.30
2022-12-18T04:10:43.715Z,11.35
2022-12-18T04:13:11.363Z,14.50
2022-12-18T04:15:40.021Z,13.48
2022-12-18T04:18:10.725Z,14.63
2022-12-18T04:20:41.456Z,11.70
2022-12-18T04:23:09.199Z,14.88
2022-12-18T04:25:38.288Z,10.27
2022-12-18T04:28:08.853Z,9.80
2022-12-18T04:30:38.049Z,8.63
2022-12-18T04:33:13.856Z,8.90
2022-12-18T04:35:41.995Z,8.68
2022-12-18T04:38:09.518Z,8.65
2022-12-18T04:40:39.456Z,8.85
2022-12-18T04:43:15.164Z,8.20
2022-12-18T04:45:42.166Z,8.52
2022-12-18T04:48:09.963Z,7.43
2022-12-18T04:50:37.444Z,7.90
2022-12-18T04:53:04.452Z,8.02
2022-12-18T04:55:31.349Z,7.97
2022-12-18T04:57:58.244Z,7.88
2022-12-18T05:00:26.599Z,8.90
2022-12-18T05:02:55.091Z,7.70
2022-12-18T05:05:22.728Z,8.50
2022-12-18T05:07:49.629Z,7.63
2022-12-18T05:10:16.708Z,7.53
2022-12-18T05:13:03.001Z,7.93
2022-12-18T05:15:33.978Z,7.68
2022-12-18T05:18:09.040Z,7.67
2022-12-18T05:20:36.277Z,7.88
2022-12-18T05:23:03.200Z,7.97
2022-12-18T05:25:31.908Z,7.85
2022-12-18T05:27:59.048Z,7.68
2022-12-18T05:30:27.034Z,7.50
2022-12-18T05:32:54.584Z,7.78
2022-12-18T05:35:22.073Z,8.02
2022-12-18T05:37:49.094Z,8.18
2022-12-18T05:40:17.574Z,8.35
2022-12-18T05:42:45.216Z,8.10
2022-12-18T05:45:13.685Z,7.60
2022-12-18T05:47:41.236Z,8.65
2022-12-18T05:50:11.287Z,8.85
2022-12-18T05:52:41.749Z,8.55
2022-12-18T05:55:09.171Z,7.25
2022-12-18T05:57:36.015Z,7.80
2022-12-18T06:00:03.879Z,7.28
2022-12-18T06:02:40.290Z,9.95
2022-12-18T06:05:08.060Z,7.60
2022-12-18T06:07:35.052Z,7.93
2022-12-18T06:10:02.080Z,8.23
2022-12-18T06:12:29.093Z,7.40
2022-12-18T06:14:59.195Z,7.22
2022-12-18T06:17:33.591Z,7.35
2022-12-18T06:20:02.414Z,8.75
2022-12-18T06:22:31.373Z,7.75
2022-12-18T06:24:58.311Z,8.93
2022-12-18T06:27:25.664Z,10.07
2022-12-18T06:29:52.720Z,8.65
2022-12-18T06:32:20.484Z,8.07
2022-12-18T06:34:47.397Z,9.48
2022-12-18T06:37:14.468Z,8.38
2022-12-18T06:39:41.367Z,9.27
2022-12-18T06:42:08.518Z,9.32
2022-12-18T06:44:35.444Z,9.88
2022-12-18T06:47:04.053Z,9.27
2022-12-18T06:49:31.118Z,9.75
2022-12-18T06:51:58.034Z,9.85
2022-12-18T06:54:30.794Z,9.13
2022-12-18T06:57:00.536Z,9.07
2022-12-18T06:59:28.850Z,9.25
2022-12-18T07:01:56.748Z,8.85
2022-12-18T07:04:30.040Z,9.27
2022-12-18T07:06:57.069Z,9.50
2022-12-18T07:09:24.764Z,9.10
2022-12-18T07:11:52.868Z,10.02
2022-12-18T07:14:19.834Z,10.73
2022-12-18T07:16:47.079Z,9.65
2022-12-18T07:19:15.585Z,10.20
2022-12-18T07:21:42.733Z,10.48
2022-12-18T07:24:09.740Z,9.80
2022-12-18T07:26:36.659Z,9.85
2022-12-18T07:29:03.708Z,9.93
2022-12-18T07:31:33.255Z,9.45
2022-12-18T07:34:00.363Z,9.85
2022-12-18T07:36:27.389Z,10.55
2022-12-18T07:38:54.340Z,9.70
2022-12-18T07:41:21.526Z,10.15
2022-12-18T07:43:48.944Z,9.35
2022-12-18T07:46:23.912Z,10.05
2022-12-18T07:48:50.850Z,10.75
2022-12-18T07:51:19.091Z,9.85
2022-12-18T07:53:46.394Z,10.70
2022-12-18T07:56:27.184Z,11.45
2022-12-18T07:58:55.313Z,10.32
2022-12-18T08:01:22.499Z,10.18
2022-12-18T08:03:51.595Z,10.90
2022-12-18T08:06:21.279Z,10.32
2022-12-18T08:08:49.997Z,10.60
2022-12-18T08:11:20.066Z,16.90
2022-12-18T08:13:48.420Z,12.10
2022-12-18T08:16:16.949Z,13.15
2022-12-18T08:18:44.017Z,12.65
2022-12-18T08:21:11.324Z,12.25
2022-12-18T08:23:51.330Z,12.60
2022-12-18T08:26:21.226Z,14.07
2022-12-18T08:28:54.209Z,14.60
2022-12-18T08:31:22.618Z,15.25
2022-12-18T08:33:53.317Z,15.98
2022-12-18T08:36:21.719Z,15.65
2022-12-18T08:38:48.869Z,15.90
2022-12-18T08:44:34.053Z,15.45
2022-12-18T08:47:27.326Z,13.40
2022-12-18T08:54:12.920Z,13.25
2022-12-18T09:00:08.868Z,12.43
2022-12-18T09:02:39.920Z,13.77
2022-12-18T09:05:11.029Z,13.27
2022-12-18T09:07:38.497Z,13.65
2022-12-18T09:10:07.341Z,14.20
2022-12-18T09:12:34.544Z,15.20
2022-12-18T09:15:01.968Z,15.88
2022-12-18T09:17:30.865Z,16.08
2022-12-18T09:19:57.751Z,21.13
2022-12-18T09:22:24.910Z,19.23
2022-12-18T09:24:52.263Z,14.27
2022-12-18T09:27:19.307Z,13.15
2022-12-18T09:29:46.370Z,12.60
2022-12-18T09:32:17.591Z,12.85
2022-12-18T09:34:47.443Z,11.98
2022-12-18T09:37:14.464Z,11.80
2022-12-18T09:39:54.892Z,12.95
2022-12-18T09:42:28.138Z,12.68
2022-12-18T09:47:44.153Z,11.80
2022-12-18T09:50:25.670Z,13.13
2022-12-18T09:52:59.101Z,12.38
2022-12-18T09:55:37.235Z,12.65
2022-12-18T09:58:10.886Z,13.18
2022-12-18T10:00:37.856Z,13.15
2022-12-18T10:03:13.691Z,14.52
2022-12-18T10:06:18.315Z,14.27
2022-12-18T10:09:10.853Z,13.65
2022-12-18T10:12:10.469Z,12.70
2022-12-18T10:15:03.220Z,12.77
2022-12-18T10:17:59.411Z,10.90
2022-12-18T10:20:46.386Z,11.95
2022-12-18T10:23:34.605Z,11.57
2022-12-18T10:26:07.743Z,11.35
2022-12-18T10:28:37.997Z,11.93
2022-12-18T10:31:08.524Z,12.35
2022-12-18T10:33:35.858Z,11.45
2022-12-18T10:36:03.917Z,12.10
2022-12-18T10:38:33.025Z,12.07
2022-12-18T10:41:05.974Z,12.65
2022-12-18T10:43:39.979Z,12.77
2022-12-18T10:46:15.899Z,11.65
2022-12-18T10:48:49.269Z,12.05
2022-12-18T10:51:25.423Z,12.07
2022-12-18T10:54:06.479Z,11.52
2022-12-18T10:56:36.861Z,9.10
2022-12-18T10:59:11.687Z,11.02
2022-12-18T11:01:59.168Z,11.75
2022-12-18T11:04:28.873Z,12.30
2022-12-18T11:07:06.152Z,11.75
2022-12-18T11:12:30.631Z,11.68
2022-12-18T11:15:10.884Z,12.02
2022-12-18T11:18:06.804Z,12.05
2022-12-18T11:20:59.666Z,12.52
2022-12-18T11:23:36.438Z,11.80
2022-12-18T11:57:37.217Z,10.75
2022-12-18T12:00:41.087Z,11.43
2022-12-18T12:06:35.764Z,11.25
2022-12-18T12:09:18.738Z,10.60
2022-12-18T12:12:30.782Z,11.27
2022-12-18T12:16:03.913Z,11.30
2022-12-18T12:22:11.163Z,11.63
2022-12-18T12:25:49.209Z,11.82
2022-12-18T12:38:33.830Z,13.13
2022-12-18T12:41:32.434Z,12.07
2022-12-18T12:48:15.346Z,11.90
2022-12-18T12:53:37.461Z,11.48
2022-12-18T12:56:39.983Z,12.73
2022-12-18T13:03:17.665Z,12.93
2022-12-18T13:06:04.684Z,13.77
2022-12-18T19:28:37.062Z,18.60
2022-12-18T19:31:26.145Z,18.02
2022-12-18T19:34:38.770Z,19.75
2022-12-18T21:02:28.109Z,21.27
2022-12-18T21:13:52.966Z,18.25
2022-12-18T21:16:57.591Z,19.88
2022-12-18T21:19:54.622Z,19.10
2022-12-18T22:41:45.867Z,18.88
2022-12-18T23:05:09.710Z,21.67
2022-12-18T23:14:48.917Z,22.50
2022-12-18T23:17:59.374Z,23.02
2022-12-18T23:23:37.276Z,21.38
2022-12-18T23:26:30.251Z,20.77
2022-12-18T23:29:14.794Z,22.23
2022-12-18T23:34:22.360Z,22.65
2022-12-18T23:37:07.346Z,20.17
2022-12-18T23:39:37.616Z,20.05
2022-12-18T23:53:04.848Z,22.00
